createdAt,value
2022-08-12T00:00:29.012Z,21.83
2022-08-12T00:02:46.410Z,21.83
2022-08-12T00:05:07.668Z,21.83
2022-08-12T00:07:27.204Z,21.81
2022-08-12T00:09:44.773Z,21.82
2022-08-12T00:12:07.277Z,21.81
2022-08-12T00:14:24.869Z,21.81
2022-08-12T00:16:42.922Z,21.81
2022-08-12T00:19:00.427Z,21.78
2022-08-12T00:21:20.636Z,21.79
2022-08-12T00:23:38.503Z,21.77
2022-08-12T00:26:20.654Z,21.76
2022-08-12T00:28:35.525Z,21.74
2022-08-12T00:30:52.916Z,21.70
2022-08-12T00:33:10.707Z,21.71
2022-08-12T00:35:36.514Z,21.70
2022-08-12T00:37:56.960Z,21.69
2022-08-12T00:40:14.246Z,21.64
2022-08-12T00:42:19.962Z,21.61
2022-08-12T00:44:26.335Z,21.56
2022-08-12T00:46:43.416Z,21.51
2022-08-12T00:48:50.696Z,21.48
2022-08-12T00:51:07.999Z,21.45
2022-08-12T00:53:19.164Z,21.46
2022-08-12T00:55:24.266Z,21.41
2022-08-12T00:57:31.643Z,21.39
2022-08-12T00:59:37.570Z,21.39
2022-08-12T01:02:02.250Z,21.36
2022-08-12T01:04:28.265Z,21.28
2022-08-12T01:06:50.912Z,21.23
2022-08-12T01:09:11.157Z,21.16
2022-08-12T01:11:33.218Z,21.09
2022-08-12T01:13:42.347Z,21.06
2022-08-12T01:15:48.341Z,21.03
2022-08-12T01:17:53.998Z,21.01
2022-08-12T01:20:02.930Z,21.00
2022-08-12T01:22:25.978Z,21.00
2022-08-12T01:24:52.191Z,21.00
2022-08-12T01:26:57.949Z,20.95
2022-08-12T01:29:03.961Z,20.91
2022-08-12T01:31:13.315Z,20.89
2022-08-12T01:33:24.097Z,20.88
2022-08-12T01:35:30.496Z,20.87
2022-08-12T01:37:40.649Z,20.84
2022-08-12T01:40:36.732Z,20.78
2022-08-12T01:42:23.192Z,20.74
2022-08-12T01:44:31.220Z,20.73
2022-08-12T01:46:48.173Z,20.73
2022-08-12T01:49:07.555Z,20.69
2022-08-12T01:52:04.555Z,20.64
2022-08-12T01:54:09.612Z,20.64
2022-08-12T01:56:18.725Z,20.59
2022-08-12T01:58:32.026Z,20.55
2022-08-12T02:00:55.259Z,20.53
2022-08-12T02:03:12.580Z,20.49
2022-08-12T02:05:40.363Z,20.43
2022-08-12T02:08:10.406Z,20.40
2022-08-12T02:10:50.401Z,20.40
2022-08-12T02:13:13.486Z,20.39
2022-08-12T02:15:26.606Z,20.40
2022-08-12T02:17:55.082Z,20.40
2022-08-12T02:20:12.876Z,20.38
2022-08-12T02:22:29.423Z,20.36
2022-08-12T02:24:35.757Z,20.32
2022-08-12T02:26:43.327Z,20.31
2022-08-12T02:28:52.214Z,20.29
2022-08-12T02:30:57.978Z,20.28
2022-08-12T02:33:04.741Z,20.30
2022-08-12T02:35:15.017Z,20.28
2022-08-12T02:37:21.318Z,20.25
2022-08-12T02:39:28.998Z,20.24
2022-08-12T02:41:37.448Z,20.23
2022-08-12T02:43:49.444Z,20.21
2022-08-12T02:46:03.438Z,20.16
2022-08-12T02:48:12.066Z,20.13
2022-08-12T02:50:20.542Z,20.07
2022-08-12T02:52:27.094Z,20.02
2022-08-12T02:54:31.971Z,19.99
2022-08-12T02:56:40.630Z,19.96
2022-08-12T02:58:46.981Z,19.93
2022-08-12T03:00:52.001Z,19.92
2022-08-12T03:03:01.247Z,19.82
2022-08-12T03:05:07.452Z,19.79
2022-08-12T03:07:17.731Z,19.69
2022-08-12T03:09:25.405Z,19.66
2022-08-12T03:11:42.729Z,19.64
2022-08-12T03:13:54.662Z,19.56
2022-08-12T03:16:01.048Z,19.53
2022-08-12T03:18:24.216Z,19.51
2022-08-12T03:20:31.841Z,19.44
2022-08-12T03:22:38.038Z,19.47
2022-08-12T03:24:45.350Z,19.48
2022-08-12T03:26:51.494Z,19.45
2022-08-12T03:28:58.178Z,19.44
2022-08-12T03:31:05.685Z,19.42
2022-08-12T03:33:16.369Z,19.37
2022-08-12T03:35:41.202Z,19.33
2022-08-12T03:37:48.111Z,19.27
2022-08-12T03:39:53.006Z,19.21
2022-08-12T03:41:59.842Z,19.25
2022-08-12T03:44:22.797Z,19.29
2022-08-12T03:46:47.026Z,19.26
2022-08-12T03:49:07.151Z,19.23
2022-08-12T03:51:26.493Z,19.25
2022-08-12T03:53:45.951Z,19.20
2022-08-12T03:56:03.273Z,19.24
2022-08-12T03:58:21.844Z,19.26
2022-08-12T04:00:28.624Z,19.23
2022-08-12T04:02:35.106Z,19.23
2022-08-12T04:04:45.600Z,19.22
2022-08-12T04:06:50.800Z,19.19
2022-08-12T04:08:57.799Z,19.13
2022-08-12T04:11:15.087Z,19.05
2022-08-12T04:13:25.724Z,18.97
2022-08-12T04:15:32.707Z,18.99
2022-08-12T04:17:39.538Z,18.96
2022-08-12T04:20:11.354Z,18.96
2022-08-12T04:22:16.305Z,18.91
2022-08-12T04:24:24.834Z,18.93
2022-08-12T04:26:30.299Z,18.97
2022-08-12T04:28:35.956Z,18.94
2022-08-12T04:30:41.574Z,18.94
2022-08-12T04:32:48.136Z,18.95
2022-08-12T04:34:53.723Z,18.98
2022-08-12T04:37:01.447Z,19.02
2022-08-12T04:39:07.937Z,19.04
2022-08-12T04:41:13.412Z,19.05
2022-08-12T04:44:00.813Z,19.09
2022-08-12T04:45:43.567Z,19.04
2022-08-12T04:47:49.159Z,19.07
2022-08-12T04:49:54.025Z,19.07
2022-08-12T04:52:03.349Z,19.13
2022-08-12T04:54:08.738Z,19.15
2022-08-12T04:56:13.782Z,19.18
2022-08-12T04:58:29.683Z,19.23
2022-08-12T05:00:36.097Z,19.17
2022-08-12T05:02:41.695Z,19.20
2022-08-12T05:04:47.923Z,19.27
2022-08-12T05:06:52.954Z,19.28
2022-08-12T05:09:01.623Z,19.23
2022-08-12T05:11:07.785Z,19.19
2022-08-12T05:13:15.850Z,19.20
2022-08-12T05:15:29.336Z,19.20
2022-08-12T05:17:34.653Z,19.23
2022-08-12T05:19:40.072Z,19.28
2022-08-12T05:21:49.185Z,19.31
2022-08-12T05:23:54.943Z,19.37
2022-08-12T05:26:03.219Z,19.47
2022-08-12T05:28:11.524Z,19.48
2022-08-12T05:30:18.229Z,19.47
2022-08-12T05:32:26.129Z,19.49
2022-08-12T05:34:31.495Z,19.52
2022-08-12T05:36:36.676Z,19.54
2022-08-12T05:38:54.069Z,19.56
2022-08-12T05:40:59.115Z,19.62
2022-08-12T05:43:06.612Z,19.63
2022-08-12T05:45:13.152Z,19.64
2022-08-12T05:47:18.268Z,19.69
2022-08-12T05:49:23.034Z,19.74
2022-08-12T05:51:39.879Z,19.81
2022-08-12T05:53:46.612Z,19.89
2022-08-12T05:55:51.161Z,19.88
2022-08-12T05:57:56.768Z,19.99
2022-08-12T06:00:04.348Z,20.23
2022-08-12T06:02:16.435Z,20.51
2022-08-12T06:04:21.441Z,20.62
2022-08-12T06:06:27.840Z,20.68
2022-08-12T06:08:34.837Z,20.78
2022-08-12T06:10:42.988Z,20.85
2022-08-12T06:12:49.329Z,20.94
2022-08-12T06:14:55.783Z,21.09
2022-08-12T06:17:03.493Z,21.22
2022-08-12T06:19:08.370Z,21.29
2022-08-12T06:21:14.659Z,21.31
2022-08-12T06:23:19.869Z,21.28
2022-08-12T06:25:27.872Z,21.22
2022-08-12T06:27:33.453Z,21.21
2022-08-12T06:30:09.732Z,21.24
2022-08-12T06:32:07.158Z,21.26
2022-08-12T06:35:24.213Z,21.24
2022-08-12T06:36:40.719Z,21.29
2022-08-12T06:38:49.764Z,21.31
2022-08-12T06:41:09.757Z,21.35
2022-08-12T06:43:14.671Z,21.31
2022-08-12T06:45:19.817Z,21.35
2022-08-12T06:47:27.113Z,21.39
2022-08-12T06:49:36.564Z,21.44
2022-08-12T06:51:41.999Z,21.45
2022-08-12T06:53:59.935Z,21.52
2022-08-12T06:56:08.181Z,21.61
2022-08-12T06:58:16.671Z,21.75
2022-08-12T07:00:30.694Z,21.87
2022-08-12T07:02:40.748Z,22.01
2022-08-12T07:04:47.578Z,22.07
2022-08-12T07:06:52.463Z,22.11
2022-08-12T07:08:57.331Z,22.15
2022-08-12T07:11:03.593Z,22.26
2022-08-12T07:13:09.748Z,22.32
2022-08-12T07:15:14.577Z,22.44
2022-08-12T07:17:19.510Z,22.60
2022-08-12T07:19:40.586Z,22.73
2022-08-12T07:21:59.488Z,22.86
2022-08-12T07:24:08.590Z,22.98
2022-08-12T07:26:16.146Z,23.10
2022-08-12T07:28:24.564Z,23.21
2022-08-12T07:30:30.664Z,23.33
2022-08-12T07:32:35.615Z,23.47
2022-08-12T07:34:43.465Z,23.53
2022-08-12T07:36:49.127Z,23.62
2022-08-12T07:38:53.990Z,23.66
2022-08-12T07:41:07.330Z,23.71
2022-08-12T07:43:12.965Z,23.75
2022-08-12T07:45:17.928Z,23.87
2022-08-12T07:47:23.129Z,23.92
2022-08-12T07:49:28.740Z,24.01
2022-08-12T07:51:37.142Z,24.12
2022-08-12T07:53:50.157Z,24.25
2022-08-12T07:56:06.299Z,24.40
2022-08-12T07:58:11.174Z,24.40
2022-08-12T08:00:18.502Z,24.38
2022-08-12T08:02:26.942Z,24.42
2022-08-12T08:04:44.220Z,24.45
2022-08-12T08:06:52.937Z,24.50
2022-08-12T08:08:58.368Z,24.58
2022-08-12T08:11:21.387Z,24.67
2022-08-12T08:13:26.364Z,24.61
2022-08-12T08:16:01.343Z,24.65
2022-08-12T08:18:02.867Z,24.69
2022-08-12T08:20:10.254Z,24.81
2022-08-12T08:22:17.702Z,24.88
2022-08-12T08:24:39.925Z,24.87
2022-08-12T08:26:45.519Z,24.91
2022-08-12T08:28:51.467Z,24.94
2022-08-12T08:30:56.410Z,24.98
2022-08-12T08:33:01.126Z,24.93
2022-08-12T08:35:10.601Z,25.00
2022-08-12T08:37:19.170Z,25.05
2022-08-12T08:39:27.544Z,25.12
2022-08-12T08:42:16.495Z,25.20
2022-08-12T08:44:11.304Z,25.19
2022-08-12T08:46:16.429Z,25.26
2022-08-12T08:48:22.283Z,25.34
2022-08-12T08:50:27.097Z,25.38
2022-08-12T08:52:40.409Z,25.40
2022-08-12T08:54:48.847Z,25.49
2022-08-12T08:56:54.150Z,25.57
2022-08-12T08:58:59.217Z,25.54
2022-08-12T09:01:04.332Z,25.61
2022-08-12T09:04:21.167Z,25.61
2022-08-12T09:06:01.745Z,25.61
2022-08-12T09:08:13.088Z,25.70
2022-08-12T09:10:31.278Z,25.81
2022-08-12T09:12:54.793Z,25.81
2022-08-12T09:15:00.487Z,25.90
2022-08-12T09:17:05.627Z,25.88
2022-08-12T09:19:27.097Z,25.93
2022-08-12T09:21:54.083Z,25.95
2022-08-12T09:26:29.006Z,26.09
2022-08-12T09:28:36.904Z,26.18
2022-08-12T09:30:44.762Z,26.26
2022-08-12T09:33:04.161Z,26.34
2022-08-12T09:35:22.075Z,26.39
2022-08-12T09:37:28.438Z,26.42
2022-08-12T09:40:06.286Z,26.48
2022-08-12T09:42:43.300Z,26.48
2022-08-12T09:45:18.056Z,26.33
2022-08-12T09:47:29.321Z,26.37
2022-08-12T09:49:41.378Z,26.43
2022-08-12T09:51:47.642Z,26.56
2022-08-12T09:54:08.763Z,26.66
2022-08-12T09:56:58.036Z,26.69
2022-08-12T09:59:00.344Z,26.64
2022-08-12T10:01:14.815Z,26.63
2022-08-12T10:03:31.992Z,26.70
2022-08-12T10:06:11.857Z,26.65
2022-08-12T10:08:11.402Z,26.78
2022-08-12T10:10:22.849Z,26.83
2022-08-12T10:13:07.741Z,26.66
2022-08-12T10:15:15.266Z,26.63
2022-08-12T10:17:36.355Z,26.78
2022-08-12T10:20:01.420Z,26.92
2022-08-12T10:22:17.235Z,27.12
2022-08-12T10:24:32.539Z,27.25
2022-08-12T10:26:51.225Z,27.21
2022-08-12T10:30:01.081Z,26.96
2022-08-12T10:32:01.666Z,26.97
2022-08-12T10:34:06.659Z,27.16
2022-08-12T10:36:19.365Z,27.33
2022-08-12T10:38:39.051Z,27.49
2022-08-12T10:40:58.913Z,27.48
2022-08-12T10:43:16.988Z,27.57
2022-08-12T10:45:24.547Z,27.62
2022-08-12T10:48:07.746Z,27.68
2022-08-12T10:50:10.490Z,27.60
2022-08-12T10:52:34.059Z,27.60
2022-08-12T10:54:46.348Z,27.63
2022-08-12T10:56:58.297Z,27.67
2022-08-12T10:59:03.951Z,27.70
2022-08-12T11:01:50.254Z,27.70
2022-08-12T11:04:23.649Z,27.74
2022-08-12T11:07:03.566Z,27.60
2022-08-12T11:08:37.319Z,27.52
2022-08-12T11:10:47.564Z,27.21
2022-08-12T11:13:00.243Z,27.24
2022-08-12T11:15:19.219Z,27.29
2022-08-12T11:17:43.198Z,27.36
2022-08-12T11:19:53.830Z,27.40
2022-08-12T11:22:01.336Z,27.41
2022-08-12T11:24:10.246Z,27.45
2022-08-12T11:26:35.310Z,27.49
2022-08-12T11:28:40.460Z,27.48
2022-08-12T11:30:45.525Z,27.37
2022-08-12T11:32:52.960Z,27.35
2022-08-12T11:35:01.020Z,27.48
2022-08-12T11:37:24.820Z,27.55
2022-08-12T11:41:56.743Z,27.51
2022-08-12T11:44:35.651Z,27.70
2022-08-12T11:46:30.547Z,27.62
2022-08-12T11:48:52.430Z,27.47
2022-08-12T11:50:58.700Z,27.30
2022-08-12T11:53:03.565Z,27.19
2022-08-12T11:55:14.944Z,27.09
2022-08-12T11:58:06.994Z,26.99
2022-08-12T12:02:20.443Z,26.90
2022-08-12T12:04:29.532Z,27.00
2022-08-12T12:06:35.250Z,26.98
2022-08-12T12:08:43.360Z,27.00
2022-08-12T12:10:53.107Z,27.15
2022-08-12T12:12:57.992Z,27.25
2022-08-12T12:15:06.957Z,27.42
2022-08-12T12:17:14.413Z,27.52
2022-08-12T12:19:19.467Z,27.61
2022-08-12T12:21:47.272Z,27.75
2022-08-12T12:23:51.873Z,27.90
2022-08-12T12:26:06.647Z,27.96
2022-08-12T12:28:35.268Z,28.06
2022-08-12T12:30:39.091Z,28.12
2022-08-12T12:32:59.817Z,28.04
2022-08-12T12:35:14.636Z,27.98
2022-08-12T12:38:03.848Z,27.91
2022-08-12T12:39:57.042Z,27.91
2022-08-12T12:42:55.831Z,27.84
2022-08-12T12:44:38.521Z,27.88
2022-08-12T12:46:46.762Z,27.94
2022-08-12T12:48:51.808Z,28.03
2022-08-12T12:51:10.310Z,28.19
2022-08-12T12:54:06.813Z,28.23
2022-08-12T12:55:47.428Z,28.25
2022-08-12T12:58:00.009Z,28.19
2022-08-12T13:00:19.019Z,28.10
2022-08-12T13:02:31.584Z,27.96
2022-08-12T13:04:37.473Z,27.88
2022-08-12T13:06:42.659Z,27.85
2022-08-12T13:08:49.888Z,27.76
2022-08-12T13:11:03.574Z,27.68
2022-08-12T13:14:07.230Z,27.62
2022-08-12T13:15:45.154Z,27.63
2022-08-12T13:18:02.035Z,27.68
2022-08-12T13:20:10.257Z,27.65
2022-08-12T13:22:23.441Z,27.72
2022-08-12T13:24:31.841Z,27.76
2022-08-12T13:26:37.953Z,27.82
2022-08-12T13:28:49.596Z,27.91
2022-08-12T13:30:59.534Z,27.92
2022-08-12T13:33:06.239Z,27.94
2022-08-12T13:35:33.275Z,27.96
2022-08-12T13:37:54.914Z,28.09
2022-08-12T13:40:03.057Z,28.20
2022-08-12T13:42:14.386Z,28.18
2022-08-12T13:44:20.603Z,28.27
2022-08-12T13:46:25.581Z,28.42
2022-08-12T13:48:30.779Z,28.53
2022-08-12T13:50:39.069Z,28.58
2022-08-12T13:52:46.350Z,28.60
2022-08-12T13:54:56.064Z,28.60
2022-08-12T13:57:03.999Z,28.67
2022-08-12T13:59:16.256Z,28.73
2022-08-12T14:01:22.557Z,28.76
2022-08-12T14:03:28.686Z,28.77
2022-08-12T14:05:56.088Z,28.95
2022-08-12T14:08:02.887Z,29.16
2022-08-12T14:10:21.100Z,29.29
2022-08-12T14:12:53.800Z,29.40
2022-08-12T14:15:00.607Z,29.52
2022-08-12T14:17:09.998Z,29.60
2022-08-12T14:19:21.934Z,29.66
2022-08-12T14:21:30.129Z,29.65
2022-08-12T14:24:05.569Z,29.81
2022-08-12T14:26:21.403Z,29.99
2022-08-12T14:28:31.289Z,29.99
2022-08-12T14:30:36.190Z,30.15
2022-08-12T14:32:41.138Z,30.36
2022-08-12T14:34:46.046Z,30.52
2022-08-12T14:36:50.612Z,30.63
2022-08-12T14:38:59.067Z,30.52
2022-08-12T14:41:08.628Z,30.29
2022-08-12T14:43:14.203Z,30.08
2022-08-12T14:45:24.712Z,29.89
2022-08-12T14:47:58.367Z,29.55
2022-08-12T14:50:58.419Z,29.60
2022-08-12T14:53:50.680Z,29.78
2022-08-12T14:57:23.811Z,29.97
2022-08-12T14:59:58.172Z,30.15
2022-08-12T15:02:06.275Z,30.16
2022-08-12T15:04:17.353Z,30.15
2022-08-12T15:06:44.167Z,30.16
2022-08-12T15:08:48.232Z,30.07
2022-08-12T15:10:54.109Z,30.15
2022-08-12T15:12:59.014Z,30.36
2022-08-12T15:15:04.295Z,30.52
2022-08-12T15:17:37.324Z,30.62
2022-08-12T15:20:27.817Z,30.72
2022-08-12T15:22:36.048Z,31.03
2022-08-12T15:24:29.479Z,31.20
2022-08-12T15:26:40.790Z,31.40
2022-08-12T15:28:51.582Z,31.52
2022-08-12T15:31:00.936Z,31.45
2022-08-12T15:33:12.647Z,31.58
2022-08-12T15:35:20.630Z,31.53
2022-08-12T15:38:09.065Z,31.62
2022-08-12T15:39:55.391Z,31.58
2022-08-12T15:42:06.527Z,31.61
2022-08-12T15:44:36.939Z,31.11
2022-08-12T15:46:37.029Z,30.70
2022-08-12T15:48:47.000Z,30.54
2022-08-12T15:50:53.184Z,30.56
2022-08-12T15:53:14.677Z,30.60
2022-08-12T15:55:21.504Z,30.70
2022-08-12T15:57:26.490Z,30.75
2022-08-12T15:59:32.640Z,30.83
2022-08-12T16:01:57.764Z,31.05
2022-08-12T16:04:06.430Z,31.15
2022-08-12T16:06:18.986Z,31.24
2022-08-12T16:08:40.179Z,31.30
2022-08-12T16:10:46.085Z,31.49
2022-08-12T16:12:55.359Z,31.60
2022-08-12T16:15:01.726Z,31.67
2022-08-12T16:17:08.994Z,31.53
2022-08-12T16:20:03.122Z,31.44
2022-08-12T16:21:51.454Z,31.02
2022-08-12T16:23:58.252Z,30.65
2022-08-12T16:26:06.010Z,30.33
2022-08-12T16:28:23.287Z,29.80
2022-08-12T16:30:34.952Z,29.40
2022-08-12T16:32:46.421Z,29.12
2022-08-12T16:35:01.626Z,28.77
2022-08-12T16:37:13.277Z,28.39
2022-08-12T16:39:19.481Z,28.23
2022-08-12T16:41:25.713Z,28.09
2022-08-12T16:43:35.303Z,28.10
2022-08-12T16:46:05.001Z,27.96
2022-08-12T16:48:05.368Z,27.92
2022-08-12T16:50:16.288Z,27.91
2022-08-12T16:52:21.541Z,27.84
2022-08-12T16:54:36.345Z,27.76
2022-08-12T16:56:50.579Z,27.79
2022-08-12T16:59:00.688Z,27.84
2022-08-12T17:01:06.773Z,27.76
2022-08-12T17:03:13.687Z,27.68
2022-08-12T17:05:36.211Z,27.56
2022-08-12T17:07:52.474Z,27.44
2022-08-12T17:09:58.140Z,27.33
2022-08-12T17:12:02.714Z,27.19
2022-08-12T17:14:07.819Z,27.06
2022-08-12T17:16:17.740Z,27.03
2022-08-12T17:18:43.979Z,27.01
2022-08-12T17:20:51.350Z,26.95
2022-08-12T17:22:57.520Z,26.90
2022-08-12T17:25:04.700Z,26.86
2022-08-12T17:27:19.488Z,26.80
2022-08-12T17:30:01.151Z,26.71
2022-08-12T17:32:00.612Z,26.64
2022-08-12T17:34:17.424Z,26.62
2022-08-12T17:36:26.430Z,26.56
2022-08-12T17:38:31.266Z,26.56
2022-08-12T17:40:37.375Z,26.56
2022-08-12T17:42:47.850Z,26.56
2022-08-12T17:44:53.608Z,26.56
2022-08-12T17:46:59.431Z,26.55
2022-08-12T17:49:06.563Z,26.54
2022-08-12T17:51:31.489Z,26.54
2022-08-12T17:53:43.354Z,26.55
2022-08-12T17:56:03.559Z,26.50
2022-08-12T17:58:09.049Z,26.45
2022-08-12T18:00:18.724Z,26.38
2022-08-12T18:02:30.817Z,26.41
2022-08-12T18:04:36.529Z,26.36
2022-08-12T18:06:50.297Z,26.37
2022-08-12T18:08:58.852Z,26.34
2022-08-12T18:12:04.341Z,26.39
2022-08-12T18:13:42.897Z,26.37
2022-08-12T18:16:05.620Z,26.35
2022-08-12T18:18:16.640Z,26.33
2022-08-12T18:20:23.715Z,26.31
2022-08-12T18:22:34.098Z,26.28
2022-08-12T18:24:39.430Z,26.28
2022-08-12T18:26:44.424Z,26.24
2022-08-12T18:28:49.239Z,26.18
2022-08-12T18:30:56.655Z,26.13
2022-08-12T18:33:07.016Z,26.09
2022-08-12T18:35:17.730Z,26.01
2022-08-12T18:37:42.364Z,25.94
2022-08-12T18:40:02.747Z,25.90
2022-08-12T18:42:08.261Z,25.86
2022-08-12T18:44:15.049Z,25.83
2022-08-12T18:46:20.882Z,25.72
2022-08-12T18:48:28.309Z,25.70
2022-08-12T18:50:49.136Z,25.65
2022-08-12T18:52:56.409Z,25.59
2022-08-12T18:55:08.286Z,25.55
2022-08-12T18:57:45.602Z,25.51
2022-08-12T19:00:02.465Z,25.48
2022-08-12T19:02:21.584Z,25.45
2022-08-12T19:04:31.382Z,25.40
2022-08-12T19:06:39.462Z,25.36
2022-08-12T19:08:47.158Z,25.34
2022-08-12T19:11:17.538Z,25.32
2022-08-12T19:13:36.121Z,25.28
2022-08-12T19:15:43.167Z,25.23
2022-08-12T19:18:00.512Z,25.20
2022-08-12T19:20:11.377Z,25.19
2022-08-12T19:22:28.838Z,25.16
2022-08-12T19:24:48.537Z,25.14
2022-08-12T19:26:58.583Z,25.06
2022-08-12T19:29:05.239Z,25.03
2022-08-12T19:31:56.301Z,24.98
2022-08-12T19:34:23.832Z,24.89
2022-08-12T19:36:26.587Z,24.80
2022-08-12T19:38:32.506Z,24.74
2022-08-12T19:40:39.604Z,24.75
2022-08-12T19:42:53.560Z,24.74
2022-08-12T19:45:01.625Z,24.72
2022-08-12T19:47:12.026Z,24.66
2022-08-12T19:49:22.445Z,24.63
2022-08-12T19:51:34.013Z,24.62
2022-08-12T19:53:57.307Z,24.59
2022-08-12T19:56:02.986Z,24.58
2022-08-12T19:58:17.950Z,24.55
2022-08-12T20:00:26.575Z,24.50
2022-08-12T20:02:33.068Z,24.48
2022-08-12T20:04:40.258Z,24.46
2022-08-12T20:06:48.593Z,24.43
2022-08-12T20:08:57.140Z,24.42
2022-08-12T20:12:10.229Z,24.39
2022-08-12T20:13:37.382Z,24.35
2022-08-12T20:15:45.011Z,24.30
2022-08-12T20:17:51.624Z,24.28
2022-08-12T20:20:17.385Z,24.26
2022-08-12T20:22:31.480Z,24.19
2022-08-12T20:24:37.606Z,24.16
2022-08-12T20:26:43.754Z,24.11
2022-08-12T20:28:51.191Z,24.11
2022-08-12T20:30:59.888Z,24.10
2022-08-12T20:33:05.336Z,24.09
2022-08-12T20:35:11.981Z,24.08
2022-08-12T20:38:06.660Z,24.05
2022-08-12T20:39:56.716Z,23.99
2022-08-12T20:42:06.187Z,23.97
2022-08-12T20:44:18.403Z,23.91
2022-08-12T20:46:28.113Z,23.84
2022-08-12T20:48:34.165Z,23.80
2022-08-12T20:50:42.917Z,23.76
2022-08-12T20:52:58.393Z,23.70
2022-08-12T20:55:03.514Z,23.65
2022-08-12T20:57:10.152Z,23.59
2022-08-12T20:59:21.535Z,23.55
2022-08-12T21:01:29.245Z,23.52
2022-08-12T21:03:58.185Z,23.47
2022-08-12T21:06:15.740Z,23.44
2022-08-12T21:08:22.213Z,23.42
2022-08-12T21:10:27.285Z,23.39
2022-08-12T21:12:34.394Z,23.34
2022-08-12T21:14:53.196Z,23.32
2022-08-12T21:16:59.342Z,23.27
2022-08-12T21:19:07.907Z,23.27
2022-08-12T21:21:23.897Z,23.22
2022-08-12T21:23:43.926Z,23.18
2022-08-12T21:25:49.176Z,23.16
2022-08-12T21:27:59.196Z,23.14
2022-08-12T21:30:14.222Z,23.13
2022-08-12T21:32:39.537Z,23.11
2022-08-12T21:34:44.323Z,23.10
2022-08-12T21:36:52.956Z,23.09
2022-08-12T21:39:01.117Z,23.06
2022-08-12T21:41:15.638Z,23.03
2022-08-12T21:43:21.083Z,22.98
2022-08-12T21:45:46.083Z,22.95
2022-08-12T21:47:53.825Z,22.90
2022-08-12T21:50:03.973Z,22.87
2022-08-12T21:52:14.655Z,22.86
2022-08-12T21:54:21.936Z,22.81
2022-08-12T21:56:34.668Z,22.78
2022-08-12T21:58:40.725Z,22.74
2022-08-12T22:00:48.470Z,22.73
2022-08-12T22:03:05.791Z,22.68
2022-08-12T22:05:31.047Z,22.61
2022-08-12T22:07:43.041Z,22.52
2022-08-12T22:09:56.919Z,22.42
2022-08-12T22:12:24.164Z,22.34
2022-08-12T22:14:30.133Z,22.25
2022-08-12T22:16:37.658Z,22.16
2022-08-12T22:18:53.090Z,22.13
2022-08-12T22:20:59.475Z,22.13
2022-08-12T22:23:05.343Z,22.12
2022-08-12T22:25:14.382Z,22.11
2022-08-12T22:27:32.507Z,22.07
2022-08-12T22:29:50.819Z,22.07
2022-08-12T22:31:59.017Z,22.04
2022-08-12T22:34:03.966Z,22.01
2022-08-12T22:36:11.153Z,21.97
2022-08-12T22:38:19.542Z,21.94
2022-08-12T22:40:24.476Z,21.89
2022-08-12T22:42:42.653Z,21.87
2022-08-12T22:45:02.781Z,21.83
2022-08-12T22:47:53.144Z,21.81
2022-08-12T22:49:53.521Z,21.76
2022-08-12T22:52:08.626Z,21.73
2022-08-12T22:54:20.850Z,21.73
2022-08-12T22:56:39.308Z,21.69
2022-08-12T22:58:46.278Z,21.67
2022-08-12T23:00:53.076Z,21.66
2022-08-12T23:03:03.144Z,21.68
2022-08-12T23:05:10.479Z,21.68
2022-08-12T23:07:15.482Z,21.69
2022-08-12T23:09:24.497Z,21.69
2022-08-12T23:11:36.252Z,21.68
2022-08-12T23:13:45.883Z,21.68
2022-08-12T23:15:54.494Z,21.68
2022-08-12T23:18:02.746Z,21.68
2022-08-12T23:20:10.740Z,21.69
2022-08-12T23:22:37.111Z,21.69
2022-08-12T23:24:55.905Z,21.72
2022-08-12T23:27:15.103Z,21.73
2022-08-12T23:29:26.053Z,21.71
2022-08-12T23:32:02.303Z,21.67
2022-08-12T23:34:03.518Z,21.65
2022-08-12T23:36:08.701Z,21.60
2022-08-12T23:38:31.153Z,21.57
2022-08-12T23:40:38.039Z,21.53
2022-08-12T23:42:44.562Z,21.48
2022-08-12T23:44:52.503Z,21.45
2022-08-12T23:46:59.243Z,21.40
2022-08-12T23:49:55.763Z,21.38
2022-08-12T23:51:35.615Z,21.32
2022-08-12T23:53:43.035Z,21.27
2022-08-12T23:55:49.912Z,21.22
2022-08-12T23:58:20.598Z,21.16
